Time;durP1;ratioP1;P1;durP2;ratioP2;P2;SDS_P1;SDS_P2;PMS_P1;PMS_P2;Temp;Humidity;BMP_temperature;BMP_pressure;BME280_temperature;BME280_humidity;BME280_pressure;Samples;Min_cycle;Max_cycle;Signal;HPM_P1;HPM_P2
2020/12/22 00:01:37;;;;;;;48.67;15.57;;;;;;;;;;4958309;29;20019;-82
2020/12/22 00:04:03;;;;;;;65.07;14.93;;;;;;;;;;4957522;29;20051;-80
2020/12/22 00:06:29;;;;;;;64.00;16.87;;;;;;;;;;4958700;29;20060;-79
2020/12/22 00:08:55;;;;;;;79.80;17.97;;;;;;;;;;4958536;29;20019;-82
2020/12/22 00:11:21;;;;;;;64.37;17.80;;;;;;;;;;4959008;29;20036;-83
2020/12/22 00:13:47;;;;;;;54.30;13.90;;;;;;;;;;4957783;29;20099;-79
2020/12/22 00:16:13;;;;;;;62.67;13.67;;;;;;;;;;4959525;29;20087;-81
2020/12/22 00:18:39;;;;;;;51.73;12.30;;;;;;;;;;4947443;29;20122;-81
2020/12/22 00:21:06;;;;;;;46.67;11.80;;;;;;;;;;4954365;29;20046;-81
2020/12/22 00:23:32;;;;;;;49.60;9.40;;;;;;;;;;4954223;29;20110;-81
2020/12/22 00:25:58;;;;;;;30.53;8.27;;;;;;;;;;4955216;29;20508;-81
2020/12/22 00:28:25;;;;;;;29.97;6.40;;;;;;;;;;4951921;29;20035;-81
2020/12/22 00:30:51;;;;;;;35.47;6.63;;;;;;;;;;4952215;29;20032;-80
2020/12/22 00:33:17;;;;;;;26.57;5.43;;;;;;;;;;4953328;29;20075;-82
2020/12/22 00:35:43;;;;;;;31.07;6.13;;;;;;;;;;5659213;23;20057;-81
2020/12/22 00:38:10;;;;;;;28.77;4.90;;;;;;;;;;4975887;28;20031;-80
2020/12/22 00:40:36;;;;;;;30.77;3.83;;;;;;;;;;4976962;28;20099;-79
2020/12/22 00:48:16;;;;;;;20.67;4.00;;;;;;;;;;5013112;23;20036;-82
2020/12/22 00:50:42;;;;;;;22.70;5.33;;;;;;;;;;5007961;23;20079;-80
2020/12/22 00:55:39;;;;;;;28.50;6.43;;;;;;;;;;5492614;23;20044;-80
2020/12/22 01:00:41;;;;;;;18.47;5.33;;;;;;;;;;5140102;23;20273;-82
2020/12/22 01:03:07;;;;;;;28.33;5.63;;;;;;;;;;5088966;23;20105;-79
2020/12/22 01:08:09;;;;;;;17.63;5.53;;;;;;;;;;5516999;23;20059;-79
2020/12/22 01:10:35;;;;;;;22.33;4.50;;;;;;;;;;5568916;23;20026;-80
2020/12/22 01:13:01;;;;;;;20.57;4.33;;;;;;;;;;5140017;23;20115;-81
2020/12/22 01:29:06;;;;;;;25.73;6.97;;;;;;;;;;5606979;23;20038;-83
2020/12/22 01:34:08;;;;;;;62.60;14.70;;;;;;;;;;5346494;23;20043;-83
2020/12/22 01:41:46;;;;;;;47.83;11.43;;;;;;;;;;5332503;23;20043;-80
2020/12/22 01:44:14;;;;;;;31.73;9.27;;;;;;;;;;4959800;29;20007;-80
2020/12/22 01:46:44;;;;;;;52.30;12.70;;;;;;;;;;4962167;29;20036;-81
2020/12/22 01:49:14;;;;;;;51.40;12.00;;;;;;;;;;4957979;29;20054;-80
2020/12/22 01:51:42;;;;;;;44.03;10.73;;;;;;;;;;4956287;29;20016;-82
2020/12/22 01:54:08;;;;;;;39.67;10.27;;;;;;;;;;4958610;29;20028;-82
2020/12/22 01:56:36;;;;;;;37.23;9.93;;;;;;;;;;4960935;29;20087;-83
2020/12/22 01:59:02;;;;;;;41.50;9.35;;;;;;;;;;4961529;29;20065;-82
2020/12/22 02:01:30;;;;;;;38.85;9.55;;;;;;;;;;4992377;23;20063;-79
2020/12/22 02:03:56;;;;;;;45.57;10.50;;;;;;;;;;4956372;29;20032;-79
2020/12/22 02:06:22;;;;;;;41.03;8.83;;;;;;;;;;4958625;29;20038;-82
2020/12/22 02:08:48;;;;;;;40.80;9.20;;;;;;;;;;5053250;23;20035;31
2020/12/22 02:11:22;;;;;;;69.97;11.57;;;;;;;;;;4954853;28;20119;-84
2020/12/22 02:13:48;;;;;;;63.47;12.43;;;;;;;;;;5258681;23;20066;-83
2020/12/22 02:16:14;;;;;;;62.43;10.57;;;;;;;;;;4960155;29;20027;-81
2020/12/22 02:18:40;;;;;;;55.63;11.43;;;;;;;;;;4960103;29;20036;-81
2020/12/22 02:21:06;;;;;;;61.60;12.20;;;;;;;;;;4959648;29;20106;-81
2020/12/22 02:23:32;;;;;;;76.38;13.30;;;;;;;;;;4960176;29;20063;-82
2020/12/22 02:25:58;;;;;;;58.50;11.63;;;;;;;;;;4961550;29;20044;-80
2020/12/22 02:28:24;;;;;;;70.00;12.27;;;;;;;;;;4958571;29;20046;-81
2020/12/22 02:30:50;;;;;;;67.82;11.05;;;;;;;;;;4959193;29;20099;-81
2020/12/22 02:33:19;;;;;;;65.30;11.75;;;;;;;;;;5159414;23;20035;-81
2020/12/22 02:35:46;;;;;;;86.57;11.07;;;;;;;;;;4956311;29;20012;-81
2020/12/22 02:38:12;;;;;;;78.72;12.00;;;;;;;;;;4955118;29;20028;-79
2020/12/22 02:40:38;;;;;;;81.30;10.90;;;;;;;;;;5089628;23;20120;-80
2020/12/22 02:43:13;;;;;;;81.32;11.93;;;;;;;;;;4961821;29;20051;-86
2020/12/22 02:45:41;;;;;;;93.28;12.65;;;;;;;;;;5166356;23;20048;-86
2020/12/22 02:48:07;;;;;;;89.13;10.25;;;;;;;;;;5175519;23;20047;-82
2020/12/22 02:50:34;;;;;;;69.40;9.20;;;;;;;;;;5026910;23;20048;-81
2020/12/22 02:53:00;;;;;;;76.83;12.77;;;;;;;;;;4960460;29;20019;-79
2020/12/22 02:55:26;;;;;;;99.13;14.40;;;;;;;;;;4960436;29;20027;-80
2020/12/22 02:57:52;;;;;;;78.93;12.93;;;;;;;;;;4971564;23;667167;-79
2020/12/22 03:00:18;;;;;;;94.77;11.37;;;;;;;;;;4934532;29;20093;-79
2020/12/22 03:02:45;;;;;;;81.10;12.27;;;;;;;;;;4936478;29;20032;-79
2020/12/22 03:05:11;;;;;;;84.20;13.30;;;;;;;;;;4937091;29;20043;-80
2020/12/22 03:07:37;;;;;;;72.27;10.30;;;;;;;;;;4924739;29;20048;-84
2020/12/22 03:10:06;;;;;;;76.20;11.32;;;;;;;;;;4940449;29;20020;-81
2020/12/22 03:12:32;;;;;;;73.13;10.57;;;;;;;;;;4925543;29;20012;-81
2020/12/22 03:14:58;;;;;;;77.80;13.00;;;;;;;;;;4917325;29;20063;-81
2020/12/22 03:19:53;;;;;;;63.00;10.50;;;;;;;;;;4935498;29;20052;-80
2020/12/22 03:22:19;;;;;;;79.27;10.83;;;;;;;;;;4940093;29;20104;-81
2020/12/22 03:24:45;;;;;;;74.00;10.00;;;;;;;;;;4935773;29;20036;-82
2020/12/22 03:27:11;;;;;;;77.17;11.23;;;;;;;;;;4937225;29;20016;-81
2020/12/22 03:29:37;;;;;;;81.23;10.80;;;;;;;;;;5008167;23;20127;-81
2020/12/22 03:32:03;;;;;;;59.23;10.13;;;;;;;;;;4957792;29;20078;-78
2020/12/22 03:34:29;;;;;;;69.18;9.07;;;;;;;;;;4959764;29;20024;-80
2020/12/22 03:36:55;;;;;;;78.22;10.95;;;;;;;;;;4959131;29;20015;-80
2020/12/22 03:39:21;;;;;;;65.37;9.80;;;;;;;;;;4958313;29;20011;-77
2020/12/22 03:41:47;;;;;;;75.33;9.77;;;;;;;;;;4957742;29;20074;-80
2020/12/22 03:44:13;;;;;;;67.90;11.27;;;;;;;;;;4955780;29;20080;-79
2020/12/22 03:46:40;;;;;;;69.75;9.52;;;;;;;;;;4943288;29;20063;-78
2020/12/22 03:49:06;;;;;;;84.00;9.50;;;;;;;;;;4956087;29;20016;-81
2020/12/22 03:51:32;;;;;;;49.17;10.90;;;;;;;;;;4956236;29;20032;-78
2020/12/22 03:53:58;;;;;;;82.63;10.73;;;;;;;;;;4949464;29;20449;-81
2020/12/22 03:56:26;;;;;;;76.50;9.87;;;;;;;;;;4951556;29;20493;-82
2020/12/22 03:58:52;;;;;;;78.77;10.93;;;;;;;;;;4950842;29;20032;-79
2020/12/22 04:01:18;;;;;;;100.77;11.23;;;;;;;;;;4947011;29;20059;-82
2020/12/22 04:03:44;;;;;;;79.50;12.80;;;;;;;;;;4950134;29;20100;-79
2020/12/22 04:06:10;;;;;;;80.28;11.95;;;;;;;;;;4951018;29;20126;-82
2020/12/22 04:08:36;;;;;;;56.50;9.73;;;;;;;;;;4953699;29;20028;-79
2020/12/22 04:11:02;;;;;;;89.63;11.83;;;;;;;;;;4955442;29;20031;-80
2020/12/22 04:13:28;;;;;;;81.77;11.47;;;;;;;;;;5081722;23;20052;-79
2020/12/22 04:15:55;;;;;;;71.67;10.53;;;;;;;;;;4912000;29;20013;-79
2020/12/22 04:18:21;;;;;;;83.25;12.30;;;;;;;;;;4898790;29;20036;-79
2020/12/22 04:20:47;;;;;;;67.40;10.10;;;;;;;;;;4915979;29;20040;-78
2020/12/22 04:23:13;;;;;;;81.03;10.07;;;;;;;;;;4921461;29;20040;-81
2020/12/22 04:25:39;;;;;;;62.43;10.73;;;;;;;;;;5001449;23;20947;-80
2020/12/22 04:28:05;;;;;;;68.57;7.80;;;;;;;;;;4941121;29;20054;-79
2020/12/22 04:30:32;;;;;;;69.73;10.20;;;;;;;;;;5016223;23;20087;-79
2020/12/22 04:32:58;;;;;;;71.25;8.80;;;;;;;;;;4974219;29;20058;-81
2020/12/22 04:35:24;;;;;;;70.00;9.37;;;;;;;;;;4977781;28;20011;-81
2020/12/22 04:37:50;;;;;;;65.15;8.80;;;;;;;;;;4978445;28;20023;-79
2020/12/22 04:40:16;;;;;;;69.93;8.48;;;;;;;;;;5066678;23;20050;-80
2020/12/22 04:42:43;;;;;;;66.77;9.47;;;;;;;;;;4971146;29;20031;-81
2020/12/22 04:45:12;;;;;;;75.35;9.38;;;;;;;;;;4973077;29;20043;-81
2020/12/22 04:47:42;;;;;;;68.53;8.07;;;;;;;;;;4971720;29;20397;-81
2020/12/22 04:50:08;;;;;;;63.77;8.73;;;;;;;;;;4968635;29;20043;-80
2020/12/22 04:52:34;;;;;;;73.90;9.43;;;;;;;;;;4977185;28;20031;-81
2020/12/22 04:55:01;;;;;;;73.27;9.53;;;;;;;;;;4974574;28;20038;-82
2020/12/22 04:57:31;;;;;;;60.30;8.73;;;;;;;;;;4973699;29;20039;-79
2020/12/22 04:59:58;;;;;;;54.50;7.90;;;;;;;;;;4974917;29;20035;-80
2020/12/22 05:02:26;;;;;;;55.13;8.67;;;;;;;;;;4978469;28;20033;-81
2020/12/22 05:04:52;;;;;;;62.75;9.05;;;;;;;;;;4977660;28;20039;-80
2020/12/22 05:07:18;;;;;;;44.20;8.47;;;;;;;;;;4975373;29;20035;-77
2020/12/22 05:09:45;;;;;;;57.97;9.15;;;;;;;;;;4978268;28;20015;-80
2020/12/22 05:12:11;;;;;;;66.43;9.70;;;;;;;;;;4975003;29;20050;-80
2020/12/22 05:14:38;;;;;;;49.97;8.63;;;;;;;;;;4970107;29;20035;-80
2020/12/22 05:17:04;;;;;;;55.07;8.03;;;;;;;;;;4969571;29;20038;-79
2020/12/22 05:19:36;;;;;;;47.67;7.27;;;;;;;;;;4971876;29;20031;-80
2020/12/22 05:22:03;;;;;;;53.67;7.93;;;;;;;;;;4977760;29;20034;-83
2020/12/22 05:24:29;;;;;;;48.83;8.30;;;;;;;;;;4980161;28;20027;-81
2020/12/22 05:26:56;;;;;;;47.40;7.67;;;;;;;;;;4980003;29;20034;-79
2020/12/22 05:29:25;;;;;;;63.83;8.20;;;;;;;;;;4980375;28;20039;-81
2020/12/22 05:31:51;;;;;;;55.37;7.07;;;;;;;;;;4981176;28;20033;-80
2020/12/22 05:34:18;;;;;;;57.53;6.87;;;;;;;;;;4980022;28;20024;-81
2020/12/22 05:36:45;;;;;;;45.17;6.20;;;;;;;;;;4980777;28;20493;-80
2020/12/22 05:39:14;;;;;;;47.03;7.20;;;;;;;;;;4979160;29;20008;-82
2020/12/22 05:41:41;;;;;;;50.53;7.23;;;;;;;;;;4975948;29;20051;-80
2020/12/22 05:44:07;;;;;;;36.83;8.63;;;;;;;;;;4966866;29;20027;-79
2020/12/22 05:46:41;;;;;;;48.67;6.00;;;;;;;;;;4969161;29;20027;-79
2020/12/22 05:49:08;;;;;;;52.38;6.68;;;;;;;;;;4973738;29;20078;-81
2020/12/22 05:51:34;;;;;;;49.97;8.70;;;;;;;;;;4976401;29;20039;-78
2020/12/22 05:54:08;;;;;;;43.80;7.32;;;;;;;;;;4957306;29;20088;-80
2020/12/22 05:56:34;;;;;;;46.57;6.73;;;;;;;;;;4959697;29;20059;-80
2020/12/22 05:59:00;;;;;;;42.17;7.75;;;;;;;;;;4977797;29;20027;-80
2020/12/22 06:01:30;;;;;;;55.07;7.27;;;;;;;;;;4962948;29;20042;-80
2020/12/22 06:03:57;;;;;;;48.28;7.63;;;;;;;;;;4977194;29;20027;-83
2020/12/22 06:06:26;;;;;;;53.88;7.75;;;;;;;;;;4973772;29;20078;-81
2020/12/22 06:08:52;;;;;;;54.83;8.10;;;;;;;;;;4965645;29;20110;-81
2020/12/22 06:11:18;;;;;;;57.57;9.10;;;;;;;;;;4970365;29;20041;-78
2020/12/22 06:13:46;;;;;;;58.30;8.23;;;;;;;;;;4970793;29;20035;-80
2020/12/22 06:16:17;;;;;;;69.53;9.73;;;;;;;;;;4971963;29;20472;-81
2020/12/22 06:18:44;;;;;;;56.07;7.00;;;;;;;;;;4975736;29;20504;-80
2020/12/22 06:21:11;;;;;;;51.00;7.32;;;;;;;;;;4975974;28;20031;-80
2020/12/22 06:23:37;;;;;;;54.45;7.00;;;;;;;;;;4975932;29;20038;-80
2020/12/22 06:26:04;;;;;;;48.10;6.10;;;;;;;;;;5042808;23;20060;-81
2020/12/22 06:28:31;;;;;;;45.33;6.50;;;;;;;;;;4938606;29;20036;-80
2020/12/22 06:30:57;;;;;;;43.67;6.60;;;;;;;;;;4935139;29;20033;-81
2020/12/22 06:33:26;;;;;;;47.50;7.40;;;;;;;;;;4950368;29;20032;-81
2020/12/22 06:35:59;;;;;;;63.30;7.13;;;;;;;;;;5240020;23;20052;-81
2020/12/22 06:38:44;;;;;;;64.03;7.20;;;;;;;;;;4955052;29;20031;-79
2020/12/22 06:41:11;;;;;;;46.28;8.45;;;;;;;;;;4951002;29;20032;-81
2020/12/22 06:43:43;;;;;;;61.83;8.93;;;;;;;;;;4953092;29;20020;-81
2020/12/22 06:46:29;;;;;;;53.63;8.23;;;;;;;;;;4940935;29;20036;-81
2020/12/22 06:48:55;;;;;;;53.13;8.13;;;;;;;;;;4947693;29;20016;-82
2020/12/22 06:51:32;;;;;;;46.17;10.87;;;;;;;;;;4950245;29;20027;-80
2020/12/22 06:54:00;;;;;;;57.67;9.30;;;;;;;;;;4959481;29;20034;-81
2020/12/22 06:56:40;;;;;;;53.70;8.10;;;;;;;;;;4956833;29;20039;-81
2020/12/22 06:59:06;;;;;;;43.93;7.83;;;;;;;;;;4954096;29;20175;-80
2020/12/22 07:01:35;;;;;;;60.33;7.93;;;;;;;;;;4950910;29;20036;-81
2020/12/22 07:04:16;;;;;;;49.73;7.87;;;;;;;;;;4950798;29;20039;-79
2020/12/22 07:06:44;;;;;;;48.47;8.83;;;;;;;;;;4950368;29;20058;-80
2020/12/22 07:09:16;;;;;;;66.57;9.97;;;;;;;;;;4952597;29;20024;-78
2020/12/22 07:11:42;;;;;;;73.03;9.37;;;;;;;;;;4951444;29;20011;-82
2020/12/22 07:14:08;;;;;;;72.17;10.83;;;;;;;;;;4957557;29;20035;-81
2020/12/22 07:16:53;;;;;;;61.10;9.27;;;;;;;;;;4954997;29;20126;-80
2020/12/22 07:19:23;;;;;;;75.53;11.02;;;;;;;;;;4960304;29;20027;-82
2020/12/22 07:21:51;;;;;;;63.90;9.10;;;;;;;;;;4956822;29;20103;-82
2020/12/22 07:24:17;;;;;;;62.80;9.20;;;;;;;;;;4955142;29;20031;-82
2020/12/22 07:26:44;;;;;;;64.47;10.63;;;;;;;;;;4954360;29;20035;-80
2020/12/22 07:29:10;;;;;;;87.17;10.90;;;;;;;;;;4960035;29;20016;-82
2020/12/22 07:31:37;;;;;;;79.83;10.60;;;;;;;;;;4957800;29;20032;-82
2020/12/22 07:34:06;;;;;;;68.07;9.30;;;;;;;;;;4959169;29;20051;-82
2020/12/22 07:36:33;;;;;;;74.63;10.10;;;;;;;;;;4957717;29;20055;-82
2020/12/22 07:39:18;;;;;;;71.50;11.80;;;;;;;;;;5097516;23;20060;-79
2020/12/22 07:41:44;;;;;;;57.65;7.82;;;;;;;;;;4955860;29;20063;-85
2020/12/22 07:46:54;;;;;;;82.10;9.93;;;;;;;;;;4982334;23;20049;-82
2020/12/22 07:49:20;;;;;;;85.38;10.07;;;;;;;;;;4959783;29;20036;-86
2020/12/22 07:56:51;;;;;;;71.20;9.57;;;;;;;;;;5328321;23;20030;-80
2020/12/22 07:59:17;;;;;;;86.30;11.00;;;;;;;;;;5464691;23;20105;-83
2020/12/22 08:30:18;;;;;;;51.45;5.85;;;;;;;;;;5407114;23;20040;-82
2020/12/22 08:35:31;;;;;;;49.90;5.57;;;;;;;;;;4958165;28;20047;-83
2020/12/22 08:37:57;;;;;;;43.55;4.43;;;;;;;;;;4959642;28;20024;-84
2020/12/22 08:45:54;;;;;;;43.33;5.45;;;;;;;;;;4939050;28;20032;-82
2020/12/22 08:48:20;;;;;;;55.30;5.30;;;;;;;;;;4940928;28;20080;-84
2020/12/22 08:53:20;;;;;;;41.33;3.87;;;;;;;;;;4959776;28;20048;-82
2020/12/22 08:58:32;;;;;;;31.20;4.00;;;;;;;;;;5476179;23;20027;31
2020/12/22 09:01:00;;;;;;;45.40;5.00;;;;;;;;;;4933942;29;20055;-82
2020/12/22 09:03:27;;;;;;;37.65;4.90;;;;;;;;;;4921649;29;20036;-83
2020/12/22 09:05:53;;;;;;;45.35;6.15;;;;;;;;;;4938140;29;20052;-84
2020/12/22 09:08:19;;;;;;;48.20;4.35;;;;;;;;;;4939970;29;20012;-83
2020/12/22 09:10:48;;;;;;;23.75;3.70;;;;;;;;;;4939632;29;20032;-83
2020/12/22 09:13:16;;;;;;;41.00;4.68;;;;;;;;;;5049040;23;20048;-84
2020/12/22 09:15:55;;;;;;;40.10;3.97;;;;;;;;;;5356846;23;20043;-83
2020/12/22 09:18:21;;;;;;;40.05;4.00;;;;;;;;;;4960177;29;20039;-82
2020/12/22 09:21:03;;;;;;;34.17;3.80;;;;;;;;;;5123329;23;20066;-82
2020/12/22 09:23:30;;;;;;;35.45;4.40;;;;;;;;;;5119976;23;20022;-80
2020/12/22 09:25:56;;;;;;;26.90;3.45;;;;;;;;;;4959125;29;20072;-83
2020/12/22 09:33:40;;;;;;;20.10;3.20;;;;;;;;;;5157070;23;20095;-83
2020/12/22 09:36:09;;;;;;;22.10;3.27;;;;;;;;;;5333262;23;20099;-82
2020/12/22 09:38:35;;;;;;;26.52;3.60;;;;;;;;;;4953823;29;20034;-82
2020/12/22 09:41:02;;;;;;;22.40;3.10;;;;;;;;;;4954542;29;20035;-82
2020/12/22 09:43:28;;;;;;;21.70;3.65;;;;;;;;;;4954774;29;20035;-82
2020/12/22 09:45:55;;;;;;;20.75;3.05;;;;;;;;;;5280071;23;20482;-83
2020/12/22 09:48:21;;;;;;;19.70;2.90;;;;;;;;;;4934593;29;20560;-83
2020/12/22 09:50:47;;;;;;;26.35;3.05;;;;;;;;;;4923105;29;20060;-83
2020/12/22 09:53:13;;;;;;;21.60;3.40;;;;;;;;;;4936593;29;20029;-83
2020/12/22 09:58:07;;;;;;;19.20;3.03;;;;;;;;;;4922555;29;20048;-83
2020/12/22 10:00:34;;;;;;;24.45;3.70;;;;;;;;;;5201397;23;20086;-82
2020/12/22 10:03:00;;;;;;;25.97;3.33;;;;;;;;;;4961013;29;20034;-82
2020/12/22 10:05:26;;;;;;;20.23;3.47;;;;;;;;;;5166779;23;20107;-83
2020/12/22 10:07:52;;;;;;;22.52;3.15;;;;;;;;;;5236051;23;20010;-83
2020/12/22 10:12:54;;;;;;;25.20;3.50;;;;;;;;;;5002008;23;20052;-83
2020/12/22 10:15:20;;;;;;;22.00;2.53;;;;;;;;;;4959855;29;20042;-82
2020/12/22 10:17:46;;;;;;;17.90;3.03;;;;;;;;;;5331835;23;20119;-80
2020/12/22 10:20:12;;;;;;;20.45;2.70;;;;;;;;;;4960620;29;20023;-82
2020/12/22 10:22:38;;;;;;;18.83;2.78;;;;;;;;;;4961434;29;20028;-81
2020/12/22 10:25:04;;;;;;;21.83;2.42;;;;;;;;;;5002738;23;20059;-82
2020/12/22 10:27:30;;;;;;;20.58;2.30;;;;;;;;;;4961807;29;20039;-83
2020/12/22 10:29:56;;;;;;;16.80;2.50;;;;;;;;;;4962149;29;20015;-83
2020/12/22 10:32:22;;;;;;;11.55;2.25;;;;;;;;;;4962759;29;20012;-82
2020/12/22 10:34:49;;;;;;;26.65;3.50;;;;;;;;;;4961725;29;20064;-82
2020/12/22 10:37:15;;;;;;;21.50;2.53;;;;;;;;;;4961314;29;20034;-83
2020/12/22 10:39:41;;;;;;;11.95;2.10;;;;;;;;;;4955826;29;20059;-81
2020/12/22 10:42:07;;;;;;;15.10;1.95;;;;;;;;;;4954205;29;20036;-82
2020/12/22 10:44:33;;;;;;;10.33;1.83;;;;;;;;;;4952785;29;20032;-82
2020/12/22 10:46:59;;;;;;;12.93;1.77;;;;;;;;;;4959068;29;20020;-83
2020/12/22 10:49:25;;;;;;;12.27;2.03;;;;;;;;;;4958339;29;20042;-82
2020/12/22 10:51:53;;;;;;;11.52;1.73;;;;;;;;;;4954123;29;20064;-82
2020/12/22 10:54:19;;;;;;;13.50;2.25;;;;;;;;;;4957168;29;20035;-82
2020/12/22 10:56:45;;;;;;;12.23;1.93;;;;;;;;;;4958967;29;20062;-82
2020/12/22 10:59:14;;;;;;;12.02;2.63;;;;;;;;;;4961032;29;20016;-82
2020/12/22 11:01:41;;;;;;;11.13;2.05;;;;;;;;;;4959213;29;20123;-81
2020/12/22 11:04:07;;;;;;;10.38;2.30;;;;;;;;;;4957380;29;20032;-82
2020/12/22 11:09:02;;;;;;;15.25;2.20;;;;;;;;;;4935148;29;20035;-82
2020/12/22 11:11:28;;;;;;;5.97;1.40;;;;;;;;;;4953239;29;20067;-82
2020/12/22 11:13:54;;;;;;;10.32;1.70;;;;;;;;;;4948249;29;20095;-81
2020/12/22 11:16:30;;;;;;;14.60;2.25;;;;;;;;;;4951250;29;20042;-81
2020/12/22 11:18:56;;;;;;;16.23;2.90;;;;;;;;;;4950943;29;20032;-81
2020/12/22 11:21:25;;;;;;;13.20;2.07;;;;;;;;;;4950969;29;20103;-81
2020/12/22 11:23:51;;;;;;;13.47;1.70;;;;;;;;;;4950684;29;20036;-81
2020/12/22 11:26:18;;;;;;;13.00;1.80;;;;;;;;;;4952136;29;20135;-81
2020/12/22 11:28:44;;;;;;;12.35;2.80;;;;;;;;;;4959250;29;20024;-82
2020/12/22 11:31:11;;;;;;;10.60;1.52;;;;;;;;;;4961353;29;20098;-81
2020/12/22 11:33:37;;;;;;;16.38;2.38;;;;;;;;;;4961518;29;20020;-82
2020/12/22 11:36:04;;;;;;;10.77;1.58;;;;;;;;;;4958615;29;20038;-81
2020/12/22 11:38:30;;;;;;;9.13;1.60;;;;;;;;;;4961298;29;20012;-84
2020/12/22 11:40:56;;;;;;;20.73;1.87;;;;;;;;;;4952987;29;20478;-81
2020/12/22 11:43:23;;;;;;;11.60;2.10;;;;;;;;;;4952235;29;20032;-81
2020/12/22 11:45:49;;;;;;;11.23;1.90;;;;;;;;;;4954846;29;20032;-82
2020/12/22 11:48:15;;;;;;;7.85;1.83;;;;;;;;;;4953002;29;20060;-82
2020/12/22 11:50:41;;;;;;;15.30;2.50;;;;;;;;;;4952724;29;20015;-82
2020/12/22 11:55:52;;;;;;;;;;;;;;;;;;4988686;23;20182;-82
2020/12/22 11:58:19;;;;;;;32.40;3.50;;;;;;;;;;4957619;29;20356;-81
2020/12/22 12:00:45;;;;;;;21.05;4.32;;;;;;;;;;4968628;29;20035;-81
2020/12/22 12:03:11;;;;;;;16.87;2.30;;;;;;;;;;4976544;29;20085;-83
2020/12/22 12:05:37;;;;;;;15.00;2.90;;;;;;;;;;4970376;29;20027;-81
2020/12/22 12:08:03;;;;;;;16.67;2.50;;;;;;;;;;4963871;29;20074;-81
2020/12/22 12:10:29;;;;;;;15.77;2.60;;;;;;;;;;4966616;29;20538;-82
2020/12/22 12:12:56;;;;;;;17.15;2.30;;;;;;;;;;4966013;29;20441;-81
2020/12/22 12:15:22;;;;;;;12.77;2.40;;;;;;;;;;4963649;29;20027;-81
2020/12/22 12:17:48;;;;;;;17.35;2.38;;;;;;;;;;4965346;28;20031;-81
2020/12/22 12:20:14;;;;;;;18.33;2.30;;;;;;;;;;4964911;29;20034;-81
2020/12/22 12:22:40;;;;;;;19.08;3.03;;;;;;;;;;4966044;29;20027;-81
2020/12/22 12:25:06;;;;;;;12.52;2.50;;;;;;;;;;4968392;29;20046;-81
2020/12/22 12:27:32;;;;;;;18.52;2.70;;;;;;;;;;4973485;29;20011;-82
2020/12/22 12:29:58;;;;;;;12.53;1.90;;;;;;;;;;4978027;28;20059;-82
2020/12/22 12:32:28;;;;;;;19.60;2.38;;;;;;;;;;4979356;28;20039;-82
2020/12/22 12:34:55;;;;;;;19.02;2.95;;;;;;;;;;4995823;23;20132;-82
2020/12/22 12:37:21;;;;;;;15.48;2.33;;;;;;;;;;4938756;29;20063;-81
2020/12/22 12:39:47;;;;;;;17.50;1.73;;;;;;;;;;4946194;29;20024;-81
2020/12/22 12:42:13;;;;;;;10.43;1.48;;;;;;;;;;4950491;29;20020;-82
2020/12/22 12:44:39;;;;;;;14.77;1.73;;;;;;;;;;4947260;29;20095;-82
2020/12/22 12:47:05;;;;;;;16.75;2.75;;;;;;;;;;4943923;29;20039;-81
2020/12/22 12:49:31;;;;;;;11.20;1.88;;;;;;;;;;4945076;29;20446;-81
2020/12/22 12:51:57;;;;;;;10.23;1.90;;;;;;;;;;4945117;29;20123;-80
2020/12/22 12:54:23;;;;;;;14.48;1.83;;;;;;;;;;4930676;29;20028;-81
2020/12/22 12:56:49;;;;;;;5.20;1.15;;;;;;;;;;4946249;29;20028;-81
2020/12/22 12:59:15;;;;;;;15.57;1.60;;;;;;;;;;4949189;29;20394;-82
2020/12/22 13:01:42;;;;;;;17.17;1.60;;;;;;;;;;4948566;29;20124;-81
2020/12/22 13:04:08;;;;;;;10.80;1.20;;;;;;;;;;4929191;29;20074;-81
2020/12/22 13:06:36;;;;;;;13.57;1.17;;;;;;;;;;4950297;29;20055;-81
2020/12/22 13:09:02;;;;;;;7.60;0.93;;;;;;;;;;4948493;29;20028;-81
2020/12/22 13:11:28;;;;;;;16.77;2.28;;;;;;;;;;4948824;29;20024;-81
2020/12/22 13:13:54;;;;;;;7.73;1.07;;;;;;;;;;4935940;29;20024;-81
2020/12/22 13:16:20;;;;;;;12.10;1.60;;;;;;;;;;4937949;29;20025;-82
2020/12/22 13:18:46;;;;;;;10.55;1.70;;;;;;;;;;4950932;29;20022;-82
2020/12/22 13:21:12;;;;;;;5.05;0.95;;;;;;;;;;4948662;29;20036;-82
2020/12/22 13:23:40;;;;;;;6.60;1.90;;;;;;;;;;4934755;29;20096;-81
2020/12/22 13:26:06;;;;;;;11.43;1.90;;;;;;;;;;4952058;29;20036;-81
2020/12/22 13:28:32;;;;;;;7.45;1.15;;;;;;;;;;4955591;29;20041;-80
2020/12/22 13:30:58;;;;;;;10.48;1.10;;;;;;;;;;4937347;29;20036;-82
2020/12/22 13:33:24;;;;;;;12.90;1.30;;;;;;;;;;4944417;29;20043;-81
2020/12/22 13:35:50;;;;;;;5.87;1.10;;;;;;;;;;4962124;29;20023;-82
2020/12/22 13:38:16;;;;;;;11.00;2.05;;;;;;;;;;4958894;29;20024;-81
2020/12/22 13:40:42;;;;;;;10.43;1.23;;;;;;;;;;4957176;29;20047;-81
2020/12/22 13:43:08;;;;;;;5.60;1.10;;;;;;;;;;4960875;29;20032;-81
2020/12/22 13:45:34;;;;;;;10.80;1.13;;;;;;;;;;4960678;29;20015;-81
2020/12/22 13:48:01;;;;;;;7.50;1.20;;;;;;;;;;4962136;29;20051;-81
2020/12/22 13:50:27;;;;;;;15.57;2.07;;;;;;;;;;4956271;29;20115;-82
2020/12/22 13:52:53;;;;;;;8.77;1.77;;;;;;;;;;4952978;29;20038;-81
2020/12/22 13:55:19;;;;;;;7.60;1.42;;;;;;;;;;4955563;29;20027;-81
2020/12/22 13:57:51;;;;;;;11.70;1.95;;;;;;;;;;4953124;29;20038;-82
2020/12/22 14:00:17;;;;;;;7.28;1.42;;;;;;;;;;4953536;29;20024;-80
2020/12/22 14:02:43;;;;;;;11.18;1.13;;;;;;;;;;4954722;29;20032;-81
2020/12/22 14:05:09;;;;;;;10.10;1.42;;;;;;;;;;4960302;29;20023;-82
2020/12/22 14:07:35;;;;;;;9.38;1.23;;;;;;;;;;4960780;29;20070;-81
2020/12/22 14:10:01;;;;;;;13.25;1.83;;;;;;;;;;4958417;29;20040;-81
2020/12/22 14:12:27;;;;;;;7.45;1.05;;;;;;;;;;4945635;23;20048;-83
2020/12/22 14:14:53;;;;;;;11.60;1.27;;;;;;;;;;4921232;29;20012;-81
2020/12/22 14:17:19;;;;;;;10.05;1.33;;;;;;;;;;4922546;29;20025;-81
2020/12/22 14:19:45;;;;;;;16.65;2.22;;;;;;;;;;4912352;29;20462;-81
2020/12/22 14:22:11;;;;;;;12.15;1.55;;;;;;;;;;4909412;29;20395;-81
2020/12/22 14:24:37;;;;;;;11.50;1.95;;;;;;;;;;4895620;29;20051;-81
2020/12/22 14:27:03;;;;;;;12.18;1.73;;;;;;;;;;4893432;29;20061;-81
2020/12/22 14:29:29;;;;;;;13.75;2.15;;;;;;;;;;4911999;29;20060;-81
2020/12/22 14:31:55;;;;;;;13.00;1.27;;;;;;;;;;4913409;29;20043;-81
2020/12/22 14:34:21;;;;;;;8.80;2.13;;;;;;;;;;4912033;29;20020;-81
2020/12/22 14:36:53;;;;;;;12.38;1.83;;;;;;;;;;4914050;29;20033;-81
2020/12/22 14:39:19;;;;;;;12.40;1.73;;;;;;;;;;4913220;29;20020;-81
2020/12/22 14:41:48;;;;;;;12.20;2.20;;;;;;;;;;4916547;29;20064;-81
2020/12/22 14:44:14;;;;;;;13.98;2.75;;;;;;;;;;4916689;29;20036;-81
2020/12/22 14:46:40;;;;;;;12.60;1.30;;;;;;;;;;4917422;29;20029;-81
2020/12/22 14:49:06;;;;;;;19.17;1.70;;;;;;;;;;4915951;29;20032;-81
2020/12/22 14:51:32;;;;;;;18.30;2.70;;;;;;;;;;4917152;29;20043;-81
2020/12/22 14:53:58;;;;;;;18.60;1.73;;;;;;;;;;4917822;29;20025;-81
2020/12/22 14:56:25;;;;;;;13.93;2.28;;;;;;;;;;4912628;29;20033;-82
2020/12/22 14:58:51;;;;;;;15.55;1.88;;;;;;;;;;4914254;29;20033;-81
2020/12/22 15:01:17;;;;;;;12.07;2.40;;;;;;;;;;4914055;29;20038;-81
2020/12/22 15:03:43;;;;;;;11.90;1.80;;;;;;;;;;4911612;29;20040;-81
2020/12/22 15:06:09;;;;;;;8.80;1.55;;;;;;;;;;4911560;29;20033;-81
2020/12/22 15:08:35;;;;;;;18.35;1.98;;;;;;;;;;4913997;29;20071;-81
2020/12/22 15:11:02;;;;;;;13.18;1.70;;;;;;;;;;4913761;29;20052;-81
2020/12/22 15:13:28;;;;;;;14.38;2.17;;;;;;;;;;4916852;29;20029;-81
2020/12/22 15:15:54;;;;;;;9.63;2.55;;;;;;;;;;4919820;29;20057;-82
2020/12/22 15:18:21;;;;;;;13.40;1.73;;;;;;;;;;4922370;29;20061;-82
2020/12/22 15:20:47;;;;;;;15.63;2.35;;;;;;;;;;4922105;29;20057;-84
2020/12/22 15:23:13;;;;;;;12.30;1.90;;;;;;;;;;4921105;29;20033;-83
2020/12/22 15:25:39;;;;;;;11.63;1.45;;;;;;;;;;4920431;29;20028;-81
2020/12/22 15:28:05;;;;;;;9.75;1.65;;;;;;;;;;4919946;29;20035;-82
2020/12/22 15:30:31;;;;;;;12.68;1.90;;;;;;;;;;4920413;29;20021;-82
2020/12/22 15:32:57;;;;;;;12.48;1.88;;;;;;;;;;4913690;29;20032;-81
2020/12/22 15:35:23;;;;;;;12.73;1.92;;;;;;;;;;4911093;29;20029;-81
2020/12/22 15:37:49;;;;;;;10.30;1.92;;;;;;;;;;4912631;29;20374;-80
2020/12/22 15:40:16;;;;;;;15.32;1.80;;;;;;;;;;4912019;29;20036;-81
2020/12/22 15:42:45;;;;;;;9.68;1.58;;;;;;;;;;4912932;29;20036;-81
2020/12/22 15:45:11;;;;;;;10.10;2.13;;;;;;;;;;4911515;29;20040;-81
2020/12/22 15:47:37;;;;;;;11.35;1.83;;;;;;;;;;4914997;29;20032;-81
2020/12/22 15:50:04;;;;;;;20.88;2.03;;;;;;;;;;4921573;29;20017;-81
2020/12/22 15:52:30;;;;;;;9.18;1.52;;;;;;;;;;4922635;29;20009;-82
2020/12/22 15:54:56;;;;;;;11.07;1.87;;;;;;;;;;4921915;29;20119;-82
2020/12/22 15:57:22;;;;;;;11.73;1.80;;;;;;;;;;4921942;29;20049;-82
2020/12/22 15:59:48;;;;;;;9.27;2.20;;;;;;;;;;4920373;29;20053;-82
2020/12/22 16:02:14;;;;;;;11.60;2.10;;;;;;;;;;4916509;29;20060;-82
2020/12/22 16:04:40;;;;;;;6.03;1.58;;;;;;;;;;4913498;29;20040;-81
2020/12/22 16:07:06;;;;;;;12.60;1.80;;;;;;;;;;4898797;29;20064;-81
2020/12/22 16:09:32;;;;;;;17.58;2.67;;;;;;;;;;4921278;29;20508;-81